• Join FlightAware (Why Join?)
  • Login
  • US Flag 
06:04PM EST


 

Airport Tracker/Info


-or-


 

Live Flight TrackerFlight Track Log ✈ N9246F ✈ 30-May-2014 ✈ KMLB - KVRB

Flight Track Log - Related Links

Times and Time Zones

All times are in EDT time to prevent confusion due to time zone crossing. See the N9246F flight status page for this flight to view local times or setup timezone preferences in your user account.

Time Position Orientation Groundspeed Altitude Reporting Facility
EDT Latitude Longitude Course Direction KTS MPH feet Rate Location/Type
11:37AM 28.0667 -80.6167 156° South 93 107 2,200  Level Orlando TRACON
11:38AM 28.0325 -80.6153 178° South 87 100 2,800 420 Climbing Miami Center
11:39AM 28.0069 -80.6081 166° South 88 101 3,200 360 Climbing Miami Center
11:41AM 27.9424 -80.5795 156° South  Level FlightAware Approximate
11:41AM 27.9836 -80.5956 155° Southeast 88 101 3,600  Level Miami Center
11:42AM 27.9172 -80.5669 156° South  Level FlightAware Approximate
11:42AM 27.9597 -80.5894 167° South 88 101 3,700  Level Miami Center
11:43AM 27.9306 -80.5814 166° South 102 117 4,000 120 Climbing Miami Center
11:44AM 27.9014 -80.5758 170° South 105 121 4,000  Level Miami Center
11:45AM 27.8736 -80.5625 157° South 104 120 4,000  Level Miami Center
11:46AM 27.8467 -80.5456 151° Southeast 104 120 4,000 -180 Level Miami Center
11:47AM 27.8167 -80.5308 157° South 108 124 3,700 -480 Descending Miami Center
11:48AM 27.7897 -80.5358 189° South 113 130 3,100 -360 Descending Miami Center
11:49AM 27.7744 -80.5656 240° Southwest 109 125 3,000 -60 Descending Miami Center
11:50AM 27.7525 -80.5900 225° Southwest 106 122 3,000 -180 Level Miami Center
11:51AM 27.7283 -80.6078 213° Southwest 106 122 2,700 -540 Descending Miami Center
11:52AM 27.7097 -80.5864 135° Southeast 108 124 2,000 -360 Descending Miami Center
11:53AM 27.7011 -80.5558 108° East 103 119 2,000  Level Miami Center
11:54AM 27.6900 -80.5258 113° Southeast 102 117 2,000 -300 Level Miami Center
11:55AM 27.6825 -80.5036 111° Southeast 73 84 1,500 -480 Descending Miami Center
11:56AM 27.6761 -80.4856 112° Southeast 62 71 1,100 -420 Descending Miami Center
11:57AM 27.6708 -80.4658 107° East 62 71 700 -300 Descending Miami Center
11:58AM 27.6650 -80.4478 110° East 62 71 500 -240 Descending Miami Center